Time;durP1;ratioP1;P1;durP2;ratioP2;P2;SDS_P1;SDS_P2;PMS_P1;PMS_P2;Temp;Humidity;BMP_temperature;BMP_pressure;BME280_temperature;BME280_humidity;BME280_pressure;Samples;Min_cycle;Max_cycle;Signal;HPM_P1;HPM_P2
2021/05/27 00:02:31;;;;;;;14.40;9.38;;;;;;;;;;4977182;28;20387;-62
2021/05/27 00:05:16;;;;;;;19.58;9.88;;;;;;;;;;5000675;28;20089;-62
2021/05/27 00:08:02;;;;;;;22.00;9.15;;;;;;;;;;5015205;28;20049;-62
2021/05/27 00:10:47;;;;;;;17.13;8.90;;;;;;;;;;5015350;28;20056;-62
2021/05/27 00:13:33;;;;;;;19.42;9.05;;;;;;;;;;5014835;28;20052;-62
2021/05/27 00:16:18;;;;;;;14.18;8.43;;;;;;;;;;5013429;28;20074;-62
2021/05/27 00:19:04;;;;;;;17.38;9.15;;;;;;;;;;5013471;28;20062;-61
2021/05/27 00:21:49;;;;;;;18.73;8.90;;;;;;;;;;5013270;28;20057;-61
2021/05/27 00:24:36;;;;;;;9.38;7.10;;;;;;;;;;5012737;28;20053;-61
2021/05/27 00:27:22;;;;;;;15.23;8.15;;;;;;;;;;5013527;28;20078;-62
2021/05/27 00:30:07;;;;;;;11.90;7.45;;;;;;;;;;5013425;28;20499;-62
2021/05/27 00:32:54;;;;;;;16.55;7.40;;;;;;;;;;5013751;28;20065;-62
2021/05/27 00:35:39;;;;;;;11.82;6.57;;;;;;;;;;5013383;28;20149;-61
2021/05/27 00:38:24;;;;;;;17.13;7.45;;;;;;;;;;5013099;28;20685;-61
2021/05/27 00:41:10;;;;;;;13.02;6.97;;;;;;;;;;5012681;28;20424;-62
2021/05/27 00:43:55;;;;;;;14.70;7.50;;;;;;;;;;5013155;28;20065;-62
2021/05/27 00:46:41;;;;;;;11.07;6.80;;;;;;;;;;5012833;28;20049;-61
2021/05/27 00:49:26;;;;;;;14.52;7.25;;;;;;;;;;5012715;28;20060;-60
2021/05/27 00:52:12;;;;;;;14.32;7.85;;;;;;;;;;5012892;28;20046;-61
2021/05/27 00:54:58;;;;;;;9.95;7.18;;;;;;;;;;4997871;28;20492;-62
2021/05/27 00:57:44;;;;;;;15.18;7.40;;;;;;;;;;5012985;28;20050;-61
2021/05/27 01:00:29;;;;;;;19.58;8.52;;;;;;;;;;5011756;28;20042;-61
2021/05/27 01:03:14;;;;;;;20.35;8.60;;;;;;;;;;5012732;28;20045;-61
2021/05/27 01:06:01;;;;;;;12.20;7.45;;;;;;;;;;5012367;28;20125;-62
2021/05/27 01:08:47;;;;;;;16.52;7.03;;;;;;;;;;4997922;28;20053;-61
2021/05/27 01:11:32;;;;;;;19.17;8.02;;;;;;;;;;5012254;28;20430;-62
2021/05/27 01:17:23;;;;;;;16.83;8.30;;;;;;;;;;5012383;28;20046;-61
2021/05/27 01:20:10;;;;;;;12.80;7.82;;;;;;;;;;4997548;28;20046;-62
2021/05/27 01:22:55;;;;;;;17.30;7.75;;;;;;;;;;5012290;28;20057;-61
2021/05/27 01:25:42;;;;;;;13.77;8.35;;;;;;;;;;4997804;28;20053;-61
2021/05/27 01:28:28;;;;;;;14.07;7.72;;;;;;;;;;4973389;28;20046;-61
2021/05/27 01:31:15;;;;;;;16.98;7.55;;;;;;;;;;4972974;28;20512;-61
2021/05/27 01:34:03;;;;;;;15.68;7.57;;;;;;;;;;4973290;28;20046;-62
2021/05/27 01:36:51;;;;;;;16.30;8.13;;;;;;;;;;4969266;28;20050;-61
2021/05/27 01:39:38;;;;;;;12.25;7.03;;;;;;;;;;5012139;28;20072;-61
2021/05/27 01:42:24;;;;;;;13.23;7.63;;;;;;;;;;5012142;28;20428;-61
2021/05/27 01:45:09;;;;;;;16.73;7.45;;;;;;;;;;5012977;28;20050;-62
2021/05/27 01:47:55;;;;;;;17.38;7.00;;;;;;;;;;4997652;28;20075;-65
2021/05/27 01:50:44;;;;;;;14.68;6.78;;;;;;;;;;5012302;28;20050;-63
2021/05/27 01:53:29;;;;;;;16.23;7.70;;;;;;;;;;4997345;28;20054;-63
2021/05/27 01:56:19;;;;;;;12.95;6.35;;;;;;;;;;5012243;28;20041;-63
2021/05/27 01:59:06;;;;;;;11.68;6.35;;;;;;;;;;5012968;28;20304;-65
2021/05/27 02:01:58;;;;;;;17.63;7.38;;;;;;;;;;5001377;28;20057;-64
2021/05/27 02:04:43;;;;;;;13.27;5.93;;;;;;;;;;5012656;28;20053;-64
2021/05/27 02:07:28;;;;;;;11.80;6.20;;;;;;;;;;5014187;28;20089;-64
2021/05/27 02:10:15;;;;;;;18.17;7.07;;;;;;;;;;4997175;28;20527;-64
2021/05/27 02:13:01;;;;;;;13.32;7.53;;;;;;;;;;5011923;28;20057;-64
2021/05/27 02:15:47;;;;;;;14.57;6.80;;;;;;;;;;4997028;28;20503;-63
2021/05/27 02:18:32;;;;;;;13.05;7.75;;;;;;;;;;4998462;28;20049;-64
2021/05/27 02:21:17;;;;;;;18.95;8.02;;;;;;;;;;5011766;28;20504;-63
2021/05/27 02:24:03;;;;;;;16.95;7.25;;;;;;;;;;5011870;28;20089;-62
2021/05/27 02:26:49;;;;;;;11.27;6.75;;;;;;;;;;5011358;28;20042;-65
2021/05/27 02:29:37;;;;;;;15.70;7.40;;;;;;;;;;5011347;28;20050;-63
2021/05/27 02:32:26;;;;;;;16.38;7.40;;;;;;;;;;4996913;28;20159;-63
2021/05/27 02:35:14;;;;;;;13.18;6.20;;;;;;;;;;4998952;28;20046;-64
2021/05/27 02:37:59;;;;;;;12.35;6.03;;;;;;;;;;4999899;28;20049;-64
2021/05/27 02:40:45;;;;;;;20.02;6.97;;;;;;;;;;4997609;28;20093;-64
2021/05/27 02:43:33;;;;;;;17.52;7.78;;;;;;;;;;5012440;28;20405;-63
2021/05/27 02:46:23;;;;;;;11.32;6.68;;;;;;;;;;5011568;28;20050;-63
2021/05/27 02:49:13;;;;;;;18.08;7.68;;;;;;;;;;4998798;28;20050;-63
2021/05/27 02:52:01;;;;;;;15.05;6.85;;;;;;;;;;5000055;28;20125;-63
2021/05/27 02:54:48;;;;;;;18.15;6.60;;;;;;;;;;5000333;28;20385;-64
2021/05/27 02:57:35;;;;;;;16.27;6.47;;;;;;;;;;5000147;28;20496;-64
2021/05/27 03:00:21;;;;;;;13.73;6.13;;;;;;;;;;4999917;28;20052;-65
2021/05/27 03:03:22;;;;;;;12.00;5.85;;;;;;;;;;5000158;28;20556;-64
2021/05/27 03:06:07;;;;;;;11.40;5.47;;;;;;;;;;5000265;28;20081;-65
2021/05/27 03:08:57;;;;;;;11.07;5.95;;;;;;;;;;5000162;28;20045;-63
2021/05/27 03:11:43;;;;;;;14.15;5.72;;;;;;;;;;5014152;28;20481;-63
2021/05/27 03:14:28;;;;;;;10.20;5.60;;;;;;;;;;5014742;28;20045;-63
2021/05/27 03:17:21;;;;;;;12.65;5.07;;;;;;;;;;4999727;28;20136;-64
2021/05/27 03:20:06;;;;;;;10.68;4.95;;;;;;;;;;5014170;28;20058;-64
2021/05/27 03:22:52;;;;;;;8.25;5.10;;;;;;;;;;5014513;28;20520;-64
2021/05/27 03:25:38;;;;;;;10.07;5.18;;;;;;;;;;5014366;28;20054;-64
2021/05/27 03:28:24;;;;;;;8.98;4.88;;;;;;;;;;4999831;28;20053;-63
2021/05/27 03:31:14;;;;;;;14.68;4.72;;;;;;;;;;4999241;28;20077;-63
2021/05/27 03:34:04;;;;;;;6.80;3.75;;;;;;;;;;5015453;28;20049;-64
2021/05/27 03:36:50;;;;;;;11.48;5.20;;;;;;;;;;5015377;28;20495;-63
2021/05/27 03:39:36;;;;;;;10.05;4.68;;;;;;;;;;5014238;28;20054;-64
2021/05/27 03:42:22;;;;;;;7.80;4.28;;;;;;;;;;5013806;28;20136;-63
2021/05/27 03:45:10;;;;;;;9.48;4.30;;;;;;;;;;4999489;28;20108;-63
2021/05/27 03:47:58;;;;;;;8.55;4.03;;;;;;;;;;4999260;28;20057;-63
2021/05/27 03:50:44;;;;;;;8.45;4.40;;;;;;;;;;5013917;28;20060;-64
2021/05/27 03:53:34;;;;;;;9.25;4.53;;;;;;;;;;5016166;28;20556;-64
2021/05/27 03:56:23;;;;;;;8.90;4.13;;;;;;;;;;5000969;28;20050;-63
2021/05/27 04:02:21;;;;;;;;;;;;;;;;;;4999472;28;20520;-63
2021/05/27 04:08:39;;;;;;;8.95;4.20;;;;;;;;;;5013675;28;20046;-63
2021/05/27 04:11:25;;;;;;;10.73;4.40;;;;;;;;;;5012946;28;20061;-63
2021/05/27 04:14:10;;;;;;;7.70;4.30;;;;;;;;;;5013597;28;20053;-63
2021/05/27 04:16:55;;;;;;;8.00;4.60;;;;;;;;;;5013717;28;20049;-63
2021/05/27 04:19:41;;;;;;;10.30;4.78;;;;;;;;;;5013420;28;20439;-63
2021/05/27 04:22:26;;;;;;;7.40;4.45;;;;;;;;;;4974000;28;20138;-64
2021/05/27 04:25:12;;;;;;;10.75;4.95;;;;;;;;;;4975674;28;20050;-64
2021/05/27 04:27:58;;;;;;;11.43;5.10;;;;;;;;;;4975153;28;20049;-64
2021/05/27 04:33:54;;;;;;;11.32;5.47;;;;;;;;;;5013958;28;20054;-63
2021/05/27 04:36:39;;;;;;;10.82;5.53;;;;;;;;;;5013541;28;20096;-64
2021/05/27 04:39:25;;;;;;;12.82;5.25;;;;;;;;;;5013837;28;20042;-64
2021/05/27 04:42:10;;;;;;;10.40;5.82;;;;;;;;;;5012677;28;20501;-63
2021/05/27 04:44:55;;;;;;;11.98;5.22;;;;;;;;;;4974071;28;20093;-63
2021/05/27 04:47:41;;;;;;;12.77;5.22;;;;;;;;;;4974102;28;20055;-63
2021/05/27 04:50:26;;;;;;;9.52;4.60;;;;;;;;;;4973680;28;20073;-62
2021/05/27 04:53:12;;;;;;;10.93;5.35;;;;;;;;;;5011791;28;20058;-63
2021/05/27 04:55:58;;;;;;;11.35;5.00;;;;;;;;;;5013191;28;20049;-63
2021/05/27 04:58:43;;;;;;;16.85;5.93;;;;;;;;;;5013055;28;20442;-63
2021/05/27 05:01:33;;;;;;;10.82;4.60;;;;;;;;;;5012146;28;20050;-64
2021/05/27 05:04:19;;;;;;;13.50;4.93;;;;;;;;;;4993286;28;20048;-63
2021/05/27 05:07:04;;;;;;;8.95;4.55;;;;;;;;;;4993243;28;20046;-64
2021/05/27 05:09:49;;;;;;;7.90;5.13;;;;;;;;;;4992929;28;20042;-63
2021/05/27 05:12:44;;;;;;;9.25;4.70;;;;;;;;;;5001045;28;20482;-63
2021/05/27 05:15:30;;;;;;;8.20;4.43;;;;;;;;;;5012605;28;20176;-63
2021/05/27 05:18:16;;;;;;;13.50;5.55;;;;;;;;;;5012489;28;20045;-63
2021/05/27 05:21:01;;;;;;;7.65;4.55;;;;;;;;;;5012744;28;20455;-64
2021/05/27 05:23:46;;;;;;;10.48;4.82;;;;;;;;;;5012389;28;20052;-63
2021/05/27 05:26:32;;;;;;;10.75;5.47;;;;;;;;;;5012289;28;20072;-63
2021/05/27 05:29:17;;;;;;;7.63;4.82;;;;;;;;;;5012447;28;20152;-63
2021/05/27 05:32:03;;;;;;;10.52;4.82;;;;;;;;;;5012341;28;20042;-63
2021/05/27 05:34:48;;;;;;;9.45;4.72;;;;;;;;;;5012390;28;20042;-63
2021/05/27 05:37:33;;;;;;;7.93;4.68;;;;;;;;;;5012095;28;20127;-64
2021/05/27 05:40:20;;;;;;;8.65;4.53;;;;;;;;;;5012877;28;20053;-64
2021/05/27 05:43:06;;;;;;;8.90;5.10;;;;;;;;;;5012728;28;20531;-63
2021/05/27 05:45:51;;;;;;;10.05;5.38;;;;;;;;;;5013665;28;20049;-64
2021/05/27 05:48:37;;;;;;;12.82;5.30;;;;;;;;;;5012729;28;20053;-64
2021/05/27 05:51:22;;;;;;;11.65;4.93;;;;;;;;;;5012451;28;20201;-64
2021/05/27 05:54:07;;;;;;;14.65;5.20;;;;;;;;;;5012807;28;20064;-63
2021/05/27 05:56:53;;;;;;;16.90;5.90;;;;;;;;;;5012133;28;20522;-63
2021/05/27 05:59:38;;;;;;;10.13;5.00;;;;;;;;;;5011672;28;20050;-63
2021/05/27 06:02:23;;;;;;;10.45;5.05;;;;;;;;;;5011782;28;20103;-64
2021/05/27 06:05:09;;;;;;;12.18;5.30;;;;;;;;;;4997312;28;20133;-63
2021/05/27 06:08:05;;;;;;;13.27;5.45;;;;;;;;;;4996996;28;20416;-63
2021/05/27 06:10:50;;;;;;;13.65;5.65;;;;;;;;;;5011895;28;20112;-63
2021/05/27 06:13:36;;;;;;;15.45;5.90;;;;;;;;;;5011969;28;20042;-64
2021/05/27 06:16:21;;;;;;;13.93;6.22;;;;;;;;;;5011860;28;20132;-62
2021/05/27 06:19:06;;;;;;;13.05;5.38;;;;;;;;;;5011644;28;20129;-63
2021/05/27 06:21:57;;;;;;;17.65;6.53;;;;;;;;;;4997180;28;20046;-63
2021/05/27 06:25:14;;;;;;;12.02;6.18;;;;;;;;;;4976819;28;20129;-63
2021/05/27 06:28:00;;;;;;;12.48;5.25;;;;;;;;;;4976282;28;20054;-64
2021/05/27 06:30:45;;;;;;;9.93;5.45;;;;;;;;;;4983119;28;20046;-63
2021/05/27 06:33:32;;;;;;;14.52;6.18;;;;;;;;;;4975964;28;20050;-63
2021/05/27 06:36:17;;;;;;;12.90;5.85;;;;;;;;;;4976400;28;20050;-63
2021/05/27 06:39:02;;;;;;;12.75;5.93;;;;;;;;;;4979393;28;20074;-63
2021/05/27 06:41:48;;;;;;;11.65;5.43;;;;;;;;;;5014865;28;20050;-63
2021/05/27 06:44:34;;;;;;;19.42;6.30;;;;;;;;;;5015455;28;20069;-63
2021/05/27 06:47:20;;;;;;;19.77;6.43;;;;;;;;;;5015242;28;20058;-63
2021/05/27 06:50:06;;;;;;;17.85;7.15;;;;;;;;;;5004306;28;20047;-63
2021/05/27 06:52:51;;;;;;;13.88;6.30;;;;;;;;;;4975722;28;20049;-63
2021/05/27 06:55:36;;;;;;;16.85;6.88;;;;;;;;;;4976101;28;20058;-63
2021/05/27 06:58:21;;;;;;;16.60;6.35;;;;;;;;;;4976120;28;20053;-63
2021/05/27 07:01:07;;;;;;;16.60;6.05;;;;;;;;;;5000891;28;20080;-63
2021/05/27 07:03:54;;;;;;;14.23;6.35;;;;;;;;;;5000150;28;20120;-63
2021/05/27 07:06:39;;;;;;;18.98;6.88;;;;;;;;;;5014862;28;20070;-64
2021/05/27 07:09:24;;;;;;;17.20;7.13;;;;;;;;;;5014809;28;20053;-64
2021/05/27 07:12:10;;;;;;;17.23;6.88;;;;;;;;;;5014598;28;20131;-63
2021/05/27 07:14:55;;;;;;;21.52;6.75;;;;;;;;;;5014636;28;20048;-63
2021/05/27 07:17:41;;;;;;;15.05;7.40;;;;;;;;;;5014673;28;20049;-63
2021/05/27 07:20:27;;;;;;;16.85;7.82;;;;;;;;;;5014023;28;20049;-63
2021/05/27 07:23:14;;;;;;;12.88;6.75;;;;;;;;;;5013265;28;20104;-63
2021/05/27 07:26:02;;;;;;;18.17;7.68;;;;;;;;;;5013458;28;20056;-63
2021/05/27 07:28:47;;;;;;;16.30;7.43;;;;;;;;;;5014533;28;20064;-63
2021/05/27 07:31:33;;;;;;;12.48;5.38;;;;;;;;;;5013898;28;20515;-63
2021/05/27 07:34:18;;;;;;;13.93;7.30;;;;;;;;;;4999021;28;20140;-63
2021/05/27 07:37:03;;;;;;;12.40;6.80;;;;;;;;;;5014288;28;20061;-63
2021/05/27 07:39:49;;;;;;;17.70;7.03;;;;;;;;;;5013971;28;20045;-63
2021/05/27 07:42:35;;;;;;;13.15;6.38;;;;;;;;;;5013818;28;20050;-63
2021/05/27 07:45:20;;;;;;;17.08;7.40;;;;;;;;;;5013896;28;20060;-63
2021/05/27 07:48:05;;;;;;;12.90;6.30;;;;;;;;;;5014103;28;20531;-64
2021/05/27 07:50:51;;;;;;;12.73;6.32;;;;;;;;;;5013759;28;20089;-63
2021/05/27 07:53:36;;;;;;;11.30;6.03;;;;;;;;;;5013804;28;20103;-64
2021/05/27 07:56:22;;;;;;;10.60;5.72;;;;;;;;;;5013934;28;20108;-63
2021/05/27 07:59:08;;;;;;;12.02;5.80;;;;;;;;;;5014027;28;20116;-63
2021/05/27 08:01:53;;;;;;;13.88;5.95;;;;;;;;;;5013699;28;20053;-64
2021/05/27 08:04:42;;;;;;;15.15;5.75;;;;;;;;;;5013953;28;20064;-63
2021/05/27 08:07:27;;;;;;;13.25;5.85;;;;;;;;;;5014903;28;20057;-64
2021/05/27 08:10:13;;;;;;;18.90;7.28;;;;;;;;;;5015685;28;20403;-64
2021/05/27 08:12:58;;;;;;;14.38;6.40;;;;;;;;;;5012786;28;20123;-63
2021/05/27 08:15:43;;;;;;;13.02;5.88;;;;;;;;;;5015180;28;20118;-64
2021/05/27 08:18:29;;;;;;;16.00;6.82;;;;;;;;;;5014900;28;20046;-64
2021/05/27 08:21:14;;;;;;;15.10;5.68;;;;;;;;;;5013938;28;20053;-63
2021/05/27 08:24:00;;;;;;;15.60;6.13;;;;;;;;;;5013722;28;20060;-64
2021/05/27 08:26:45;;;;;;;13.88;6.13;;;;;;;;;;5013683;28;20103;-64
2021/05/27 08:29:31;;;;;;;13.52;5.50;;;;;;;;;;5013456;28;20137;-63
2021/05/27 08:32:16;;;;;;;11.02;5.05;;;;;;;;;;5014285;28;20072;-64
2021/05/27 08:35:02;;;;;;;16.67;5.07;;;;;;;;;;5014996;28;20044;-64
2021/05/27 08:37:47;;;;;;;12.32;5.05;;;;;;;;;;5015409;28;20126;-63
2021/05/27 08:40:32;;;;;;;12.27;4.55;;;;;;;;;;5017364;28;20603;-64
2021/05/27 08:43:18;;;;;;;12.20;4.13;;;;;;;;;;5017321;28;20049;-63
2021/05/27 08:46:04;;;;;;;11.18;4.10;;;;;;;;;;5012476;28;20057;-63
2021/05/27 08:48:49;;;;;;;9.27;3.80;;;;;;;;;;5012841;28;20542;-63
2021/05/27 08:51:35;;;;;;;9.75;3.33;;;;;;;;;;4980894;28;20049;-63
2021/05/27 08:54:20;;;;;;;8.63;3.60;;;;;;;;;;4973820;28;20054;-63
2021/05/27 08:57:06;;;;;;;11.57;3.65;;;;;;;;;;5007595;28;20046;-65
2021/05/27 08:59:51;;;;;;;7.63;3.25;;;;;;;;;;5018004;28;20140;-63
2021/05/27 09:02:53;;;;;;;9.40;3.03;;;;;;;;;;5017071;28;20048;-65
2021/05/27 09:05:40;;;;;;;14.45;3.38;;;;;;;;;;5012699;28;20516;-64
2021/05/27 09:08:30;;;;;;;9.98;3.22;;;;;;;;;;5012795;28;20050;-64
2021/05/27 09:11:22;;;;;;;7.10;2.97;;;;;;;;;;5012330;28;20056;-64
2021/05/27 09:14:07;;;;;;;8.95;3.28;;;;;;;;;;5016179;28;20084;-65
2021/05/27 09:16:59;;;;;;;8.02;2.72;;;;;;;;;;5014457;28;20042;-64
2021/05/27 09:19:44;;;;;;;7.88;2.45;;;;;;;;;;5016574;28;20229;-65
2021/05/27 09:22:30;;;;;;;7.78;2.85;;;;;;;;;;5015476;28;20129;-64
2021/05/27 09:25:25;;;;;;;8.00;2.85;;;;;;;;;;5002140;28;20056;-65
2021/05/27 09:28:11;;;;;;;8.57;3.03;;;;;;;;;;5017474;28;20432;-65
2021/05/27 09:30:57;;;;;;;7.60;2.75;;;;;;;;;;5016552;28;20049;-64
2021/05/27 09:33:48;;;;;;;6.50;2.78;;;;;;;;;;5016071;28;20053;-64
2021/05/27 09:36:34;;;;;;;7.57;2.25;;;;;;;;;;5015634;28;20068;-65
2021/05/27 09:39:19;;;;;;;8.35;2.40;;;;;;;;;;5016093;28;20056;-64
2021/05/27 09:42:05;;;;;;;6.35;1.90;;;;;;;;;;5013093;28;20057;-64
2021/05/27 09:44:50;;;;;;;4.65;2.45;;;;;;;;;;5012203;28;20496;-64
2021/05/27 09:47:35;;;;;;;9.27;2.33;;;;;;;;;;5012227;28;20052;-63
2021/05/27 09:50:42;;;;;;;9.60;2.30;;;;;;;;;;5011840;28;20068;-64
2021/05/27 09:53:27;;;;;;;9.95;2.17;;;;;;;;;;5011977;28;20050;-64
2021/05/27 09:56:13;;;;;;;5.88;2.40;;;;;;;;;;5012208;28;20452;-64
2021/05/27 09:58:58;;;;;;;6.95;1.98;;;;;;;;;;5013221;28;20459;-64
2021/05/27 10:02:02;;;;;;;9.70;3.00;;;;;;;;;;5015810;28;20390;-64
2021/05/27 10:04:57;;;;;;;9.32;2.55;;;;;;;;;;5001287;28;20061;-64
2021/05/27 10:07:52;;;;;;;12.90;2.88;;;;;;;;;;5015937;28;20048;-64
2021/05/27 10:10:37;;;;;;;6.38;2.35;;;;;;;;;;5015748;28;20073;-63
2021/05/27 10:13:27;;;;;;;8.63;2.42;;;;;;;;;;4975772;28;20421;-64
2021/05/27 10:16:13;;;;;;;11.98;2.50;;;;;;;;;;4976961;28;20046;-63
2021/05/27 10:18:58;;;;;;;9.57;2.78;;;;;;;;;;4962416;28;20144;-63
2021/05/27 10:21:43;;;;;;;11.82;3.05;;;;;;;;;;4987758;28;20045;-64
2021/05/27 10:24:29;;;;;;;12.18;2.60;;;;;;;;;;5015744;28;20175;-64
2021/05/27 10:27:14;;;;;;;7.90;2.30;;;;;;;;;;5014379;28;20046;-64
2021/05/27 10:29:59;;;;;;;12.50;3.35;;;;;;;;;;5015371;28;20060;-63
2021/05/27 10:32:46;;;;;;;11.85;2.92;;;;;;;;;;5014263;28;20176;-63
2021/05/27 10:35:49;;;;;;;11.35;3.03;;;;;;;;;;5015601;28;20101;-63
2021/05/27 10:38:43;;;;;;;11.30;3.58;;;;;;;;;;5015465;28;20507;-64
2021/05/27 10:41:29;;;;;;;11.48;3.90;;;;;;;;;;5014944;28;20042;-63
2021/05/27 10:44:16;;;;;;;9.35;2.80;;;;;;;;;;4986311;28;20112;-64
2021/05/27 10:47:01;;;;;;;11.75;3.05;;;;;;;;;;5015131;28;20487;-64
2021/05/27 10:49:47;;;;;;;7.80;2.38;;;;;;;;;;5015003;28;20069;-63
2021/05/27 10:52:35;;;;;;;7.43;2.80;;;;;;;;;;5015060;28;20506;-64
2021/05/27 10:55:47;;;;;;;11.52;2.45;;;;;;;;;;5015053;28;20108;-63
2021/05/27 11:01:33;;;;;;;14.82;4.93;;;;;;;;;;4980761;28;20515;-64
2021/05/27 11:04:22;;;;;;;10.82;2.88;;;;;;;;;;5006573;28;20049;-64
2021/05/27 11:07:11;;;;;;;2.97;0.80;;;;;;;;;;5015031;28;20046;-63
2021/05/27 11:09:56;;;;;;;4.75;1.00;;;;;;;;;;4983247;28;20050;-63
2021/05/27 11:12:42;;;;;;;4.55;1.38;;;;;;;;;;4976188;28;20628;-64
2021/05/27 11:15:27;;;;;;;4.45;1.23;;;;;;;;;;5015377;28;20097;-65
2021/05/27 11:18:16;;;;;;;7.40;1.95;;;;;;;;;;5015416;28;20060;-63
2021/05/27 11:21:20;;;;;;;6.28;2.80;;;;;;;;;;5014837;28;20611;-65
2021/05/27 11:24:35;;;;;;;6.72;1.90;;;;;;;;;;5014757;28;20061;-64
2021/05/27 11:27:27;;;;;;;9.27;2.10;;;;;;;;;;5014561;28;20554;-63
2021/05/27 11:30:43;;;;;;;9.27;1.98;;;;;;;;;;5014280;28;20123;-64
2021/05/27 11:33:31;;;;;;;5.00;1.30;;;;;;;;;;5009745;28;20065;-64
2021/05/27 11:36:23;;;;;;;4.95;1.38;;;;;;;;;;5014321;28;20053;-64
2021/05/27 11:39:08;;;;;;;7.03;1.98;;;;;;;;;;5012236;28;20053;-64
2021/05/27 11:41:54;;;;;;;8.95;2.25;;;;;;;;;;5006066;28;20108;-64
2021/05/27 11:44:39;;;;;;;5.97;1.80;;;;;;;;;;5009791;28;20061;-64
2021/05/27 11:47:25;;;;;;;7.25;2.17;;;;;;;;;;5012576;28;20050;-64
2021/05/27 11:50:13;;;;;;;9.02;2.45;;;;;;;;;;5041038;23;20053;-65
2021/05/27 11:52:58;;;;;;;12.95;3.72;;;;;;;;;;4975438;28;20518;-65
2021/05/27 11:55:45;;;;;;;10.70;2.40;;;;;;;;;;5011691;28;20057;-66
2021/05/27 11:58:38;;;;;;;9.60;2.28;;;;;;;;;;4995856;28;20496;-66
2021/05/27 12:01:24;;;;;;;8.10;2.25;;;;;;;;;;4974052;28;20518;-64
2021/05/27 12:04:13;;;;;;;7.50;2.42;;;;;;;;;;4974090;28;20571;-64
2021/05/27 12:07:05;;;;;;;8.15;1.95;;;;;;;;;;4955015;29;20560;-65
2021/05/27 12:09:51;;;;;;;9.68;2.10;;;;;;;;;;4954678;29;20499;-64
2021/05/27 12:12:38;;;;;;;2.63;0.85;;;;;;;;;;4967436;28;20508;-65
2021/05/27 12:15:24;;;;;;;4.70;1.75;;;;;;;;;;4954563;29;20078;-65
2021/05/27 12:18:13;;;;;;;3.50;0.80;;;;;;;;;;4961206;28;20049;-65
2021/05/27 12:20:58;;;;;;;3.83;1.15;;;;;;;;;;4973936;28;20425;-65
2021/05/27 12:23:43;;;;;;;3.92;1.13;;;;;;;;;;4973677;28;20069;-64
2021/05/27 12:26:29;;;;;;;4.70;1.58;;;;;;;;;;4989669;28;20073;-65
2021/05/27 12:29:14;;;;;;;5.88;2.22;;;;;;;;;;4993307;28;20046;-65
2021/05/27 12:32:00;;;;;;;4.72;1.40;;;;;;;;;;4991529;28;20523;-65
2021/05/27 12:34:45;;;;;;;6.25;1.67;;;;;;;;;;4993257;28;20050;-64
2021/05/27 12:37:37;;;;;;;1.88;1.20;;;;;;;;;;4992973;28;20049;-65
2021/05/27 12:40:26;;;;;;;3.92;1.38;;;;;;;;;;4954123;29;20529;-65
2021/05/27 12:43:29;;;;;;;4.65;1.65;;;;;;;;;;4954223;29;20044;-65
2021/05/27 12:46:16;;;;;;;2.72;1.13;;;;;;;;;;4980352;28;20105;-65
2021/05/27 12:49:01;;;;;;;4.35;1.35;;;;;;;;;;4992803;28;20049;-65
2021/05/27 12:51:48;;;;;;;6.20;1.42;;;;;;;;;;4990270;28;20510;-65
2021/05/27 12:54:34;;;;;;;6.40;1.92;;;;;;;;;;4973227;28;20054;-65
2021/05/27 12:57:19;;;;;;;8.48;2.53;;;;;;;;;;4972772;28;20134;-65
2021/05/27 13:00:05;;;;;;;8.48;2.17;;;;;;;;;;4983959;28;20519;-65
2021/05/27 13:03:19;;;;;;;5.20;2.10;;;;;;;;;;4963831;28;20050;-65
2021/05/27 13:06:05;;;;;;;3.50;1.80;;;;;;;;;;4969603;28;20053;-65
2021/05/27 13:09:00;;;;;;;6.40;2.10;;;;;;;;;;4992673;28;20516;-65
2021/05/27 13:11:57;;;;;;;8.02;2.47;;;;;;;;;;4992971;28;20412;-65
2021/05/27 13:14:43;;;;;;;10.02;2.42;;;;;;;;;;4952903;29;20051;-65
2021/05/27 13:17:28;;;;;;;5.68;2.03;;;;;;;;;;4953364;29;20054;-65
2021/05/27 13:20:14;;;;;;;5.35;2.00;;;;;;;;;;4970163;28;20056;-65
2021/05/27 13:22:59;;;;;;;6.00;2.10;;;;;;;;;;4992428;28;20497;-65
2021/05/27 13:25:44;;;;;;;9.43;2.63;;;;;;;;;;4982846;28;20061;-65
2021/05/27 13:28:30;;;;;;;9.50;2.35;;;;;;;;;;4970889;28;20054;-65
2021/05/27 13:31:15;;;;;;;11.48;2.22;;;;;;;;;;4975230;28;20055;-65
2021/05/27 13:34:01;;;;;;;10.30;2.50;;;;;;;;;;4973795;28;20093;-65
2021/05/27 13:36:47;;;;;;;16.02;3.05;;;;;;;;;;4957639;28;20406;-65
2021/05/27 13:39:33;;;;;;;13.18;2.92;;;;;;;;;;4963495;28;20054;-65
2021/05/27 13:42:18;;;;;;;7.85;2.42;;;;;;;;;;4972680;28;20050;-65
2021/05/27 13:45:04;;;;;;;8.85;2.72;;;;;;;;;;4972016;28;20053;-65
2021/05/27 13:47:50;;;;;;;10.45;2.40;;;;;;;;;;4966108;28;20050;-65
2021/05/27 13:50:36;;;;;;;8.88;2.65;;;;;;;;;;4984069;28;20051;-65
2021/05/27 13:53:22;;;;;;;10.13;2.65;;;;;;;;;;4953031;29;20114;-65
2021/05/27 13:56:17;;;;;;;4.05;1.73;;;;;;;;;;4966903;28;20441;-65
2021/05/27 13:59:02;;;;;;;8.05;2.13;;;;;;;;;;4975194;28;20074;-65
2021/05/27 14:01:48;;;;;;;8.35;2.50;;;;;;;;;;4972323;28;20043;-65
2021/05/27 14:04:33;;;;;;;7.45;1.90;;;;;;;;;;4972339;28;20117;-65
2021/05/27 14:07:19;;;;;;;10.02;2.10;;;;;;;;;;4978268;28;20523;-65
2021/05/27 14:10:04;;;;;;;13.50;2.90;;;;;;;;;;4960882;28;20065;-65
2021/05/27 14:12:50;;;;;;;10.40;3.05;;;;;;;;;;4972734;28;20065;-65
2021/05/27 14:15:35;;;;;;;11.35;3.22;;;;;;;;;;4972428;28;20047;-65
2021/05/27 14:18:21;;;;;;;9.80;2.35;;;;;;;;;;4972375;28;20105;-65
2021/05/27 14:21:06;;;;;;;7.95;2.45;;;;;;;;;;4972254;28;20132;-65
2021/05/27 14:23:52;;;;;;;7.68;2.35;;;;;;;;;;4985218;28;20132;-65
2021/05/27 14:26:37;;;;;;;12.18;2.42;;;;;;;;;;4973758;28;20456;-65
2021/05/27 14:29:23;;;;;;;8.05;1.75;;;;;;;;;;4972044;28;20117;-65
2021/05/27 14:32:08;;;;;;;8.13;2.10;;;;;;;;;;4966407;28;20532;-65
2021/05/27 14:34:53;;;;;;;11.30;2.85;;;;;;;;;;4958018;28;20058;-65
2021/05/27 14:37:39;;;;;;;11.68;2.78;;;;;;;;;;4973387;28;20057;-65
2021/05/27 14:40:24;;;;;;;8.05;2.90;;;;;;;;;;4972049;28;20205;-65
2021/05/27 14:43:11;;;;;;;12.02;2.20;;;;;;;;;;4976410;28;20047;-65
2021/05/27 14:45:56;;;;;;;10.50;2.03;;;;;;;;;;4981367;28;20451;-65
2021/05/27 14:48:42;;;;;;;5.35;1.95;;;;;;;;;;4960169;28;20420;-65
2021/05/27 14:51:28;;;;;;;8.15;1.85;;;;;;;;;;4978636;28;20051;-65
2021/05/27 14:54:13;;;;;;;12.45;2.40;;;;;;;;;;4975795;28;20050;-65
2021/05/27 14:56:58;;;;;;;7.22;2.10;;;;;;;;;;4975700;28;20552;-65
2021/05/27 14:59:43;;;;;;;9.80;2.50;;;;;;;;;;4975034;28;20057;-65
2021/05/27 15:02:29;;;;;;;12.85;2.33;;;;;;;;;;4977918;28;20485;-65
2021/05/27 15:05:14;;;;;;;9.07;2.20;;;;;;;;;;4984415;28;20117;-65
2021/05/27 15:07:59;;;;;;;7.70;2.25;;;;;;;;;;4972295;28;20510;-65
2021/05/27 15:10:45;;;;;;;8.48;1.90;;;;;;;;;;4976944;28;20046;-65
2021/05/27 15:13:31;;;;;;;17.58;2.25;;;;;;;;;;4976059;28;20508;-65
2021/05/27 15:16:16;;;;;;;8.65;1.63;;;;;;;;;;4975141;28;20041;-65
2021/05/27 15:19:03;;;;;;;9.30;1.98;;;;;;;;;;4976250;28;20135;-65
2021/05/27 15:21:48;;;;;;;7.88;1.80;;;;;;;;;;4975099;28;20117;-65
2021/05/27 15:24:34;;;;;;;12.63;2.58;;;;;;;;;;4974797;28;20425;-65
2021/05/27 15:27:19;;;;;;;12.30;2.25;;;;;;;;;;4976397;28;20109;-65
2021/05/27 15:30:05;;;;;;;7.65;2.13;;;;;;;;;;4974893;28;20058;-65
2021/05/27 15:32:50;;;;;;;11.35;2.30;;;;;;;;;;4971543;28;20050;-65
2021/05/27 15:35:36;;;;;;;6.55;2.20;;;;;;;;;;4974845;28;20119;-65
2021/05/27 15:38:21;;;;;;;8.15;1.83;;;;;;;;;;4981677;28;20045;-65
2021/05/27 15:41:07;;;;;;;5.95;1.90;;;;;;;;;;4974657;28;20046;-65
2021/05/27 15:43:52;;;;;;;9.10;2.40;;;;;;;;;;4974822;28;20046;-65
2021/05/27 15:46:37;;;;;;;13.00;1.95;;;;;;;;;;4974742;28;20564;-65
2021/05/27 15:49:23;;;;;;;5.68;1.60;;;;;;;;;;4967579;28;20409;-65
2021/05/27 15:52:09;;;;;;;7.80;1.20;;;;;;;;;;4965703;28;20051;-65
2021/05/27 15:54:54;;;;;;;8.15;2.00;;;;;;;;;;4968010;28;20493;-65
2021/05/27 15:57:40;;;;;;;11.77;1.48;;;;;;;;;;4968445;28;20110;-65
2021/05/27 16:00:25;;;;;;;9.95;1.80;;;;;;;;;;4966653;28;20050;-65
2021/05/27 16:03:10;;;;;;;6.80;1.60;;;;;;;;;;4967622;28;20078;-65
2021/05/27 16:05:56;;;;;;;8.65;2.03;;;;;;;;;;4969389;28;20128;-65
2021/05/27 16:08:41;;;;;;;8.98;2.47;;;;;;;;;;4969829;28;20504;-65
2021/05/27 16:11:26;;;;;;;11.13;2.47;;;;;;;;;;4973908;28;20047;-65
2021/05/27 16:14:12;;;;;;;10.90;2.28;;;;;;;;;;4965188;28;20054;-65
2021/05/27 16:16:57;;;;;;;6.55;1.27;;;;;;;;;;4966564;28;20186;-65
2021/05/27 16:19:42;;;;;;;6.05;1.60;;;;;;;;;;4963493;28;20501;-65
2021/05/27 16:22:27;;;;;;;5.05;1.65;;;;;;;;;;4967909;28;20074;-65
2021/05/27 16:25:13;;;;;;;5.85;1.92;;;;;;;;;;4960546;28;20467;-65
2021/05/27 16:27:58;;;;;;;7.03;2.00;;;;;;;;;;4976461;28;20453;-65
2021/05/27 16:30:44;;;;;;;6.22;1.60;;;;;;;;;;4952694;29;20058;-65
2021/05/27 16:33:29;;;;;;;8.20;2.00;;;;;;;;;;4951206;29;20054;-65
2021/05/27 16:39:18;;;;;;;6.40;1.70;;;;;;;;;;4981762;28;20050;-65
2021/05/27 16:42:04;;;;;;;9.85;2.00;;;;;;;;;;4972103;28;20051;-65
2021/05/27 16:44:49;;;;;;;5.43;1.90;;;;;;;;;;4992025;28;20469;-65
2021/05/27 16:47:36;;;;;;;3.80;1.45;;;;;;;;;;4983888;28;20055;-65
2021/05/27 16:50:25;;;;;;;7.45;1.80;;;;;;;;;;4984363;28;20057;-65
2021/05/27 16:53:11;;;;;;;6.15;1.58;;;;;;;;;;4990098;28;20042;-64